createdAt,value
2022-10-12T00:01:17.280Z,13.60
2022-10-12T00:03:19.451Z,13.60
2022-10-12T00:05:21.115Z,13.60
2022-10-12T00:07:22.737Z,13.60
2022-10-12T00:09:24.480Z,13.60
2022-10-12T00:11:27.496Z,13.60
2022-10-12T00:13:29.464Z,13.50
2022-10-12T00:15:31.252Z,13.60
2022-10-12T00:17:32.896Z,13.60
2022-10-12T00:19:34.640Z,13.50
2022-10-12T00:21:36.284Z,13.60
2022-10-12T00:23:38.260Z,13.60
2022-10-12T00:25:40.668Z,13.60
2022-10-12T00:27:42.290Z,13.60
2022-10-12T00:29:43.929Z,13.60
2022-10-12T00:31:45.580Z,13.60
2022-10-12T00:33:47.761Z,13.60
2022-10-12T00:35:49.408Z,13.60
2022-10-12T00:37:54.820Z,13.60
2022-10-12T00:39:56.496Z,13.60
2022-10-12T00:41:58.107Z,13.60
2022-10-12T00:43:59.874Z,13.60
2022-10-12T00:46:03.802Z,13.60
2022-10-12T00:48:05.644Z,13.60
2022-10-12T00:50:30.554Z,13.60
2022-10-12T00:52:35.363Z,13.60
2022-10-12T00:54:38.330Z,13.60
2022-10-12T00:56:42.117Z,13.60
2022-10-12T00:58:44.594Z,13.60
2022-10-12T01:00:46.441Z,13.60
2022-10-12T01:02:49.992Z,13.60
2022-10-12T01:04:52.106Z,13.60
2022-10-12T01:06:53.811Z,13.60
2022-10-12T01:08:55.670Z,13.60
2022-10-12T01:10:57.693Z,13.60
2022-10-12T01:12:59.942Z,13.60
2022-10-12T01:15:01.604Z,13.60
2022-10-12T01:17:23.498Z,13.60
2022-10-12T01:19:43.755Z,13.60
2022-10-12T01:21:53.731Z,13.60
2022-10-12T01:24:07.310Z,13.60
2022-10-12T01:26:15.224Z,13.60
2022-10-12T01:28:25.810Z,13.60
2022-10-12T01:30:33.056Z,13.70
2022-10-12T01:32:39.664Z,13.70
2022-10-12T01:34:44.027Z,13.70
2022-10-12T01:36:49.124Z,13.60
2022-10-12T01:38:59.159Z,13.60
2022-10-12T01:41:15.891Z,13.60
2022-10-12T01:43:18.430Z,13.60
2022-10-12T01:45:20.150Z,13.60
2022-10-12T01:47:21.796Z,13.60
2022-10-12T01:49:28.512Z,13.60
2022-10-12T01:51:42.521Z,13.60
2022-10-12T01:53:56.383Z,13.60
2022-10-12T01:56:09.089Z,13.60
2022-10-12T01:58:10.689Z,13.60
2022-10-12T02:00:13.532Z,13.60
2022-10-12T02:02:18.157Z,13.60
2022-10-12T02:04:55.408Z,13.60
2022-10-12T02:07:01.563Z,13.60
2022-10-12T02:09:10.120Z,13.60
2022-10-12T02:11:13.033Z,13.60
2022-10-12T02:13:15.322Z,13.60
2022-10-12T02:15:17.565Z,13.60
2022-10-12T02:17:21.339Z,13.60
2022-10-12T02:19:25.211Z,13.60
2022-10-12T02:21:32.244Z,13.60
2022-10-12T02:23:34.628Z,13.50
2022-10-12T02:25:36.259Z,13.50
2022-10-12T02:27:40.470Z,13.60
2022-10-12T02:29:45.040Z,13.60
2022-10-12T02:31:46.643Z,13.60
2022-10-12T02:33:48.283Z,13.60
2022-10-12T02:35:52.284Z,13.60
2022-10-12T02:38:01.977Z,13.60
2022-10-12T02:40:09.433Z,13.60
2022-10-12T02:42:13.587Z,13.60
2022-10-12T02:44:19.935Z,13.60
2022-10-12T02:46:22.735Z,13.60
2022-10-12T02:48:24.868Z,13.60
2022-10-12T02:50:27.282Z,13.60
2022-10-12T02:52:30.327Z,13.60
2022-10-12T02:54:32.052Z,13.60
2022-10-12T02:56:33.763Z,13.60
2022-10-12T02:58:35.438Z,13.60
2022-10-12T03:00:37.159Z,13.60
2022-10-12T03:02:38.906Z,13.60
2022-10-12T03:04:40.805Z,13.60
2022-10-12T03:06:45.505Z,13.60
2022-10-12T03:08:47.360Z,13.60
2022-10-12T03:10:49.005Z,13.50
2022-10-12T03:12:50.652Z,13.60
2022-10-12T03:14:52.250Z,13.60
2022-10-12T03:16:54.024Z,13.60
2022-10-12T03:18:55.640Z,13.60
2022-10-12T03:20:57.316Z,13.50
2022-10-12T03:22:58.957Z,13.50
2022-10-12T03:25:00.578Z,13.60
2022-10-12T03:27:02.252Z,13.50
2022-10-12T03:29:03.908Z,13.60
2022-10-12T03:31:05.534Z,13.50
2022-10-12T03:33:07.158Z,13.50
2022-10-12T03:35:09.081Z,13.50
2022-10-12T03:37:10.753Z,13.50
2022-10-12T03:39:12.358Z,13.50
2022-10-12T03:41:13.967Z,13.50
2022-10-12T03:43:15.600Z,13.50
2022-10-12T03:45:17.259Z,13.50
2022-10-12T03:47:18.916Z,13.60
2022-10-12T03:49:20.553Z,13.50
2022-10-12T03:51:22.283Z,13.50
2022-10-12T03:53:23.899Z,13.50
2022-10-12T03:55:25.646Z,13.50
2022-10-12T03:57:27.418Z,13.50
2022-10-12T03:59:29.043Z,13.50
2022-10-12T04:01:30.741Z,13.50
2022-10-12T04:03:32.364Z,13.40
2022-10-12T04:05:34.106Z,13.50
2022-10-12T04:07:36.297Z,13.50
2022-10-12T04:09:38.130Z,13.50
2022-10-12T04:11:39.794Z,13.50
2022-10-12T04:13:41.429Z,13.50
2022-10-12T04:15:43.162Z,13.40
2022-10-12T04:17:44.995Z,13.50
2022-10-12T04:19:46.694Z,13.50
2022-10-12T04:21:48.405Z,13.50
2022-10-12T04:23:50.103Z,13.50
2022-10-12T04:25:51.758Z,13.50
2022-10-12T04:27:53.366Z,13.50
2022-10-12T04:29:55.036Z,13.50
2022-10-12T04:31:56.734Z,13.50
2022-10-12T04:33:58.413Z,13.50
2022-10-12T04:36:00.042Z,13.50
2022-10-12T04:38:01.692Z,13.50
2022-10-12T04:40:04.039Z,13.50
2022-10-12T04:42:07.117Z,13.50
2022-10-12T04:44:08.950Z,13.50
2022-10-12T04:46:10.682Z,13.50
2022-10-12T04:48:12.349Z,13.50
2022-10-12T04:50:14.067Z,13.50
2022-10-12T04:52:15.695Z,13.50
2022-10-12T04:54:17.346Z,13.50
2022-10-12T04:56:19.272Z,13.50
2022-10-12T04:58:20.893Z,13.50
2022-10-12T05:00:22.516Z,13.50
2022-10-12T05:02:24.123Z,13.50
2022-10-12T05:04:25.822Z,13.40
2022-10-12T05:06:27.647Z,13.50
2022-10-12T05:08:29.297Z,13.40
2022-10-12T05:10:30.952Z,13.40
2022-10-12T05:12:32.551Z,13.50
2022-10-12T05:14:35.941Z,13.40
2022-10-12T05:16:37.879Z,13.50
2022-10-12T05:18:39.510Z,13.50
2022-10-12T05:20:41.354Z,13.50
2022-10-12T05:22:42.986Z,13.50
2022-10-12T05:24:44.699Z,13.50
2022-10-12T05:26:46.335Z,13.60
2022-10-12T05:28:48.054Z,13.50
2022-10-12T05:30:50.939Z,13.50
2022-10-12T05:32:52.586Z,13.50
2022-10-12T05:34:55.202Z,13.50
2022-10-12T05:36:58.257Z,13.50
2022-10-12T05:39:00.069Z,13.50
2022-10-12T05:41:01.752Z,13.50
2022-10-12T05:43:03.399Z,13.50
2022-10-12T05:45:05.651Z,13.50
2022-10-12T05:47:07.378Z,13.50
2022-10-12T05:49:09.023Z,13.50
2022-10-12T05:51:10.666Z,13.50
2022-10-12T05:53:14.179Z,13.50
2022-10-12T05:55:15.896Z,13.50
2022-10-12T05:57:17.584Z,13.50
2022-10-12T05:59:19.283Z,13.50
2022-10-12T06:01:21.013Z,13.50
2022-10-12T06:03:25.928Z,13.60
2022-10-12T06:05:28.093Z,13.60
2022-10-12T06:07:29.721Z,13.60
2022-10-12T06:09:31.340Z,13.60
2022-10-12T06:11:36.233Z,13.60
2022-10-12T06:13:38.272Z,13.60
2022-10-12T06:15:39.888Z,13.60
2022-10-12T06:17:41.597Z,13.60
2022-10-12T06:19:43.192Z,13.60
2022-10-12T06:21:44.900Z,13.60
2022-10-12T06:23:46.700Z,13.60
2022-10-12T06:25:49.206Z,13.60
2022-10-12T06:27:50.858Z,13.60
2022-10-12T06:29:52.532Z,13.60
2022-10-12T06:31:54.358Z,13.60
2022-10-12T06:33:56.121Z,13.60
2022-10-12T06:35:57.825Z,13.60
2022-10-12T06:37:59.417Z,13.60
2022-10-12T06:40:01.007Z,13.60
2022-10-12T06:42:02.685Z,13.60
2022-10-12T06:44:04.556Z,13.60
2022-10-12T06:46:06.252Z,13.60
2022-10-12T06:48:07.960Z,13.60
2022-10-12T06:50:09.706Z,13.60
2022-10-12T06:52:11.336Z,13.60
2022-10-12T06:54:13.038Z,13.70
2022-10-12T06:56:14.639Z,13.70
2022-10-12T06:58:16.263Z,13.60
2022-10-12T07:00:17.988Z,13.70
2022-10-12T07:02:20.005Z,13.70
2022-10-12T07:04:21.656Z,13.70
2022-10-12T07:06:23.260Z,13.70
2022-10-12T07:08:25.035Z,13.70
2022-10-12T07:10:26.841Z,13.80
2022-10-12T07:12:28.529Z,13.70
2022-10-12T07:14:30.180Z,13.70
2022-10-12T07:16:31.979Z,13.70
2022-10-12T07:18:33.925Z,13.70
2022-10-12T07:20:35.770Z,13.80
2022-10-12T07:22:37.506Z,13.80
2022-10-12T07:24:39.167Z,13.80
2022-10-12T07:26:40.906Z,13.90
2022-10-12T07:28:42.790Z,13.90
2022-10-12T07:30:44.534Z,13.90
2022-10-12T07:32:47.029Z,13.90
2022-10-12T07:34:48.660Z,13.90
2022-10-12T07:36:59.287Z,14.00
2022-10-12T07:39:01.384Z,14.00
2022-10-12T07:41:03.728Z,14.00
2022-10-12T07:43:15.786Z,14.00
2022-10-12T07:45:18.071Z,14.00
2022-10-12T07:47:19.860Z,14.00
2022-10-12T07:49:21.514Z,14.10
2022-10-12T07:51:23.176Z,14.00
2022-10-12T07:53:24.782Z,14.10
2022-10-12T07:55:26.433Z,14.10
2022-10-12T07:57:28.064Z,14.10
2022-10-12T07:59:29.678Z,14.20
2022-10-12T08:01:31.957Z,14.20
2022-10-12T08:03:33.626Z,14.20
2022-10-12T08:05:37.992Z,14.30
2022-10-12T08:07:39.914Z,14.30
2022-10-12T08:09:41.795Z,14.30
2022-10-12T08:11:43.535Z,14.30
2022-10-12T08:13:45.200Z,14.40
2022-10-12T08:15:50.328Z,14.40
2022-10-12T08:17:51.963Z,14.40
2022-10-12T08:19:53.583Z,14.40
2022-10-12T08:21:55.258Z,14.40
2022-10-12T08:23:56.858Z,14.40
2022-10-12T08:25:59.379Z,14.30
2022-10-12T08:28:01.041Z,14.30
2022-10-12T08:30:02.694Z,14.30
2022-10-12T08:32:04.459Z,14.30
2022-10-12T08:34:06.304Z,14.40
2022-10-12T08:36:08.595Z,14.40
2022-10-12T08:38:14.607Z,14.40
2022-10-12T08:40:18.024Z,14.40
2022-10-12T08:42:19.675Z,14.40
2022-10-12T08:44:45.679Z,14.40
2022-10-12T08:46:48.150Z,14.40
2022-10-12T08:48:49.855Z,14.40
2022-10-12T08:50:58.873Z,14.40
2022-10-12T08:53:27.026Z,14.50
2022-10-12T08:55:36.462Z,14.40
2022-10-12T08:57:38.234Z,14.40
2022-10-12T08:59:39.878Z,14.50
2022-10-12T09:01:53.513Z,14.50
2022-10-12T09:03:58.292Z,14.50
2022-10-12T09:06:06.166Z,14.50
2022-10-12T09:08:12.608Z,14.50
2022-10-12T09:10:14.243Z,14.50
2022-10-12T09:12:34.770Z,14.50
2022-10-12T09:14:38.629Z,14.60
2022-10-12T09:16:42.845Z,14.60
2022-10-12T09:18:46.293Z,14.60
2022-10-12T09:20:51.927Z,14.60
2022-10-12T09:23:12.331Z,14.60
2022-10-12T09:25:14.778Z,14.70
2022-10-12T09:27:18.142Z,14.80
2022-10-12T09:29:24.636Z,14.80
2022-10-12T09:31:44.983Z,14.80
2022-10-12T09:34:09.913Z,14.80
2022-10-12T09:36:15.381Z,14.90
2022-10-12T09:38:17.037Z,15.00
2022-10-12T09:40:24.056Z,15.00
2022-10-12T09:42:25.680Z,15.00
2022-10-12T09:44:30.307Z,15.00
2022-10-12T09:46:41.182Z,15.10
2022-10-12T09:48:59.345Z,15.10
2022-10-12T09:51:02.328Z,15.20
2022-10-12T09:53:11.972Z,15.20
2022-10-12T09:55:16.718Z,15.30
2022-10-12T09:57:20.582Z,15.30
2022-10-12T09:59:28.396Z,15.40
2022-10-12T10:01:36.288Z,15.50
2022-10-12T10:03:37.970Z,15.50
2022-10-12T10:05:39.609Z,15.50
2022-10-12T10:07:41.218Z,15.50
2022-10-12T10:09:43.185Z,15.50
2022-10-12T10:11:44.793Z,15.60
2022-10-12T10:13:48.163Z,15.60
2022-10-12T10:15:50.765Z,15.70
2022-10-12T10:17:54.650Z,15.70
2022-10-12T10:19:56.909Z,15.80
2022-10-12T10:22:04.512Z,15.80
2022-10-12T10:24:22.589Z,15.90
2022-10-12T10:26:24.832Z,15.90
2022-10-12T10:28:30.484Z,15.90
2022-10-12T10:30:38.073Z,16.00
2022-10-12T10:32:43.186Z,16.00
2022-10-12T10:34:44.823Z,16.00
2022-10-12T10:36:48.172Z,16.00
2022-10-12T10:38:52.644Z,16.00
2022-10-12T10:40:55.807Z,16.00
2022-10-12T10:42:58.802Z,16.00
2022-10-12T10:45:06.805Z,16.00
2022-10-12T10:47:12.198Z,16.00
2022-10-12T10:49:23.718Z,16.00
2022-10-12T10:51:44.348Z,16.00
2022-10-12T10:53:48.134Z,16.10
2022-10-12T10:55:52.656Z,16.10
2022-10-12T10:58:00.976Z,16.20
2022-10-12T11:00:33.795Z,16.20
2022-10-12T11:02:30.589Z,16.30
2022-10-12T11:04:39.529Z,16.30
2022-10-12T11:06:42.456Z,16.40
2022-10-12T11:08:44.588Z,16.40
2022-10-12T11:11:00.988Z,16.40
2022-10-12T11:13:14.713Z,16.40
2022-10-12T11:15:19.187Z,16.40
2022-10-12T11:17:26.940Z,16.40
2022-10-12T11:19:28.563Z,16.40
2022-10-12T11:21:32.430Z,16.40
2022-10-12T11:23:37.149Z,16.50
2022-10-12T11:25:45.584Z,16.50
2022-10-12T11:27:53.794Z,16.50
2022-10-12T11:30:08.847Z,16.50
2022-10-12T11:32:15.056Z,16.60
2022-10-12T11:34:18.605Z,16.60
2022-10-12T11:36:23.700Z,16.60
2022-10-12T11:38:37.844Z,16.60
2022-10-12T11:41:05.521Z,16.60
2022-10-12T11:43:08.242Z,16.60
2022-10-12T11:45:20.861Z,16.60
2022-10-12T11:47:34.943Z,16.60
2022-10-12T11:49:53.819Z,16.60
2022-10-12T11:51:57.585Z,16.60
2022-10-12T11:54:06.899Z,16.60
2022-10-12T11:56:16.185Z,16.60
2022-10-12T11:58:48.825Z,16.60
2022-10-12T12:01:09.618Z,16.60
2022-10-12T12:03:18.308Z,16.60
2022-10-12T12:05:20.298Z,16.60
2022-10-12T12:07:42.315Z,16.60
2022-10-12T12:09:49.344Z,16.60
2022-10-12T12:11:51.797Z,16.70
2022-10-12T12:14:12.154Z,16.60
2022-10-12T12:16:13.827Z,16.70
2022-10-12T12:18:17.362Z,16.70
2022-10-12T12:20:38.952Z,16.70
2022-10-12T12:22:51.108Z,16.70
2022-10-12T12:24:57.606Z,16.80
2022-10-12T12:26:59.245Z,16.90
2022-10-12T12:29:12.484Z,16.90
2022-10-12T12:31:16.073Z,16.90
2022-10-12T12:33:20.502Z,17.00
2022-10-12T12:35:25.293Z,16.90
2022-10-12T12:37:31.177Z,16.90
2022-10-12T12:39:33.824Z,17.00
2022-10-12T12:41:59.085Z,17.00
2022-10-12T12:44:04.050Z,17.00
2022-10-12T12:46:10.506Z,17.00
2022-10-12T12:48:12.109Z,16.90
2022-10-12T12:50:29.668Z,16.90
2022-10-12T12:52:37.952Z,16.90
2022-10-12T12:54:54.977Z,16.80
2022-10-12T12:57:02.836Z,16.80
2022-10-12T12:59:23.469Z,16.70
2022-10-12T13:01:25.105Z,16.70
2022-10-12T13:03:29.809Z,16.70
2022-10-12T13:05:37.476Z,16.70
2022-10-12T13:07:49.484Z,16.70
2022-10-12T13:09:56.856Z,16.70
2022-10-12T13:12:01.462Z,16.70
2022-10-12T13:14:12.262Z,16.70
2022-10-12T13:17:09.650Z,16.70
2022-10-12T13:18:48.137Z,16.70
2022-10-12T13:20:50.597Z,16.60
2022-10-12T13:22:53.569Z,16.60
2022-10-12T13:24:59.406Z,16.60
2022-10-12T13:27:16.107Z,16.60
2022-10-12T13:29:27.117Z,16.60
2022-10-12T13:31:47.615Z,16.60
2022-10-12T13:33:54.112Z,16.50
2022-10-12T13:35:59.651Z,16.50
2022-10-12T13:38:19.378Z,16.40
2022-10-12T13:40:31.486Z,16.40
2022-10-12T13:42:34.881Z,16.40
2022-10-12T13:44:36.605Z,16.40
2022-10-12T13:46:43.888Z,16.40
2022-10-12T13:48:59.485Z,16.40
2022-10-12T13:51:02.971Z,16.40
2022-10-12T13:53:14.477Z,16.40
2022-10-12T13:55:16.589Z,16.40
2022-10-12T13:57:21.126Z,16.40
2022-10-12T13:59:24.024Z,16.50
2022-10-12T14:01:26.515Z,16.50
2022-10-12T14:03:35.566Z,16.50
2022-10-12T14:05:42.962Z,16.50
2022-10-12T14:07:53.488Z,16.40
2022-10-12T14:09:59.974Z,16.40
2022-10-12T14:12:02.700Z,16.30
2022-10-12T14:14:04.710Z,16.40
2022-10-12T14:16:06.902Z,16.30
2022-10-12T14:18:26.887Z,16.30
2022-10-12T14:20:30.632Z,16.30
2022-10-12T14:22:33.061Z,16.20
2022-10-12T14:24:35.751Z,16.20
2022-10-12T14:26:37.362Z,16.20
2022-10-12T14:28:38.986Z,16.20
2022-10-12T14:30:50.564Z,16.20
2022-10-12T14:32:58.659Z,16.20
2022-10-12T14:35:24.482Z,16.20
2022-10-12T14:37:30.013Z,16.20
2022-10-12T14:39:31.839Z,16.20
2022-10-12T14:41:33.580Z,16.10
2022-10-12T14:43:35.283Z,16.10
2022-10-12T14:45:37.119Z,16.10
2022-10-12T14:47:39.252Z,16.10
2022-10-12T14:49:43.952Z,16.00
2022-10-12T14:51:46.223Z,16.00
2022-10-12T14:53:57.470Z,16.00
2022-10-12T14:55:59.188Z,15.90
2022-10-12T14:58:00.904Z,15.90
2022-10-12T15:00:02.544Z,15.80
2022-10-12T15:02:09.814Z,15.80
2022-10-12T15:04:12.415Z,15.80
2022-10-12T15:06:14.490Z,15.70
2022-10-12T15:08:16.141Z,15.80
2022-10-12T15:10:18.985Z,15.70
2022-10-12T15:12:21.953Z,15.70
2022-10-12T15:14:23.601Z,15.70
2022-10-12T15:16:26.430Z,15.60
2022-10-12T15:18:28.164Z,15.60
2022-10-12T15:20:33.247Z,15.60
2022-10-12T15:22:34.912Z,15.60
2022-10-12T15:24:36.639Z,15.60
2022-10-12T15:26:42.200Z,15.50
2022-10-12T15:28:44.298Z,15.50
2022-10-12T15:31:15.338Z,15.50
2022-10-12T15:33:10.033Z,15.50
2022-10-12T15:35:16.469Z,15.50
2022-10-12T15:37:18.291Z,15.50
2022-10-12T15:39:20.174Z,15.50
2022-10-12T15:41:22.669Z,15.40
2022-10-12T15:43:24.653Z,15.40
2022-10-12T15:45:34.180Z,15.40
2022-10-12T15:47:35.845Z,15.40
2022-10-12T15:49:37.847Z,15.40
2022-10-12T15:51:40.902Z,15.30
2022-10-12T15:53:44.798Z,15.30
2022-10-12T15:55:46.787Z,15.30
2022-10-12T15:57:48.836Z,15.30
2022-10-12T15:59:52.412Z,15.20
2022-10-12T16:01:54.090Z,15.20
2022-10-12T16:03:56.214Z,15.20
2022-10-12T16:05:58.204Z,15.20
2022-10-12T16:08:00.034Z,15.20
2022-10-12T16:10:01.786Z,15.10
2022-10-12T16:12:03.529Z,15.20
2022-10-12T16:14:05.244Z,15.20
2022-10-12T16:16:07.181Z,15.20
2022-10-12T16:18:09.462Z,15.10
2022-10-12T16:20:11.406Z,15.10
2022-10-12T16:22:13.164Z,15.10
2022-10-12T16:24:14.845Z,15.10
2022-10-12T16:26:16.534Z,15.10
2022-10-12T16:28:18.228Z,15.00
2022-10-12T16:30:20.008Z,15.00
2022-10-12T16:32:21.849Z,15.00
2022-10-12T16:34:23.477Z,15.00
2022-10-12T16:36:25.106Z,15.00
2022-10-12T16:38:26.853Z,14.90
2022-10-12T16:40:28.553Z,14.90
2022-10-12T16:42:30.227Z,14.90
2022-10-12T16:44:31.886Z,14.90
2022-10-12T16:46:33.500Z,14.80
2022-10-12T16:48:35.560Z,14.80
2022-10-12T16:50:40.451Z,14.80
2022-10-12T16:52:42.122Z,14.80
2022-10-12T16:54:43.750Z,14.80
2022-10-12T16:56:45.465Z,14.80
2022-10-12T16:58:47.103Z,14.80
2022-10-12T17:00:48.761Z,14.80
2022-10-12T17:02:52.048Z,14.80
2022-10-12T17:04:57.042Z,14.80
2022-10-12T17:06:58.716Z,14.70
2022-10-12T17:09:01.134Z,14.70
2022-10-12T17:11:13.528Z,14.70
2022-10-12T17:13:15.197Z,14.70
2022-10-12T17:15:16.879Z,14.70
2022-10-12T17:17:19.046Z,14.60
2022-10-12T17:19:31.861Z,14.70
2022-10-12T17:21:33.850Z,14.60
2022-10-12T17:23:35.500Z,14.60
2022-10-12T17:25:37.174Z,14.60
2022-10-12T17:27:38.873Z,14.60
2022-10-12T17:29:41.169Z,14.60
2022-10-12T17:31:43.184Z,14.60
2022-10-12T17:33:44.919Z,14.60
2022-10-12T17:35:46.556Z,14.50
2022-10-12T17:37:48.196Z,14.50
2022-10-12T17:39:50.419Z,14.50
2022-10-12T17:41:52.519Z,14.50
2022-10-12T17:43:54.174Z,14.50
2022-10-12T17:45:55.930Z,14.50
2022-10-12T17:47:57.541Z,14.50
2022-10-12T17:49:59.210Z,14.50
2022-10-12T17:52:00.871Z,14.50
2022-10-12T17:54:02.543Z,14.50
2022-10-12T17:56:04.788Z,14.40
2022-10-12T17:58:06.439Z,14.40
2022-10-12T18:00:08.428Z,14.40
2022-10-12T18:02:10.201Z,14.40
2022-10-12T18:04:12.344Z,14.40
2022-10-12T18:06:18.450Z,14.40
2022-10-12T18:08:20.108Z,14.40
2022-10-12T18:10:24.748Z,14.30
2022-10-12T18:12:29.331Z,14.30
2022-10-12T18:14:30.994Z,14.30
2022-10-12T18:16:33.536Z,14.30
2022-10-12T18:18:35.244Z,14.30
2022-10-12T18:20:40.012Z,14.30
2022-10-12T18:22:41.655Z,14.20
2022-10-12T18:24:43.309Z,14.20
2022-10-12T18:26:45.722Z,14.20
2022-10-12T18:28:48.185Z,14.20
2022-10-12T18:30:50.670Z,14.10
2022-10-12T18:32:52.440Z,14.10
2022-10-12T18:34:54.158Z,14.00
2022-10-12T18:36:55.842Z,14.00
2022-10-12T18:38:59.335Z,14.00
2022-10-12T18:41:09.320Z,13.80
2022-10-12T18:43:11.026Z,13.80
2022-10-12T18:45:12.699Z,13.70
2022-10-12T18:47:14.461Z,13.70
2022-10-12T18:49:16.165Z,13.60
2022-10-12T18:51:19.758Z,13.50
2022-10-12T18:53:27.035Z,13.50
2022-10-12T18:55:28.670Z,13.40
2022-10-12T18:57:32.791Z,13.40
2022-10-12T18:59:36.305Z,13.40
2022-10-12T19:01:38.166Z,13.30
2022-10-12T19:03:40.239Z,13.20
2022-10-12T19:05:41.855Z,13.20
2022-10-12T19:07:43.474Z,13.10
2022-10-12T19:09:45.122Z,13.10
2022-10-12T19:11:46.836Z,13.10
2022-10-12T19:13:52.657Z,13.00
2022-10-12T19:15:54.355Z,12.90
2022-10-12T19:17:55.987Z,12.90
2022-10-12T19:19:59.431Z,12.90
2022-10-12T19:22:01.135Z,12.80
2022-10-12T19:24:04.088Z,12.80
2022-10-12T19:26:07.409Z,12.70
2022-10-12T19:28:09.046Z,12.70
2022-10-12T19:30:10.986Z,12.70
2022-10-12T19:32:12.653Z,12.60
2022-10-12T19:34:15.131Z,12.60
2022-10-12T19:36:17.840Z,12.50
2022-10-12T19:38:20.396Z,12.50
2022-10-12T19:40:22.020Z,12.40
2022-10-12T19:42:23.799Z,12.40
2022-10-12T19:44:25.455Z,12.50
2022-10-12T19:46:27.397Z,12.30
2022-10-12T19:48:29.081Z,12.30
2022-10-12T19:50:30.688Z,12.20
2022-10-12T19:52:32.428Z,12.20
2022-10-12T19:54:36.239Z,12.20
2022-10-12T19:56:38.422Z,12.10
2022-10-12T19:58:41.112Z,12.10
2022-10-12T20:00:42.793Z,12.10
2022-10-12T20:02:44.470Z,12.00
2022-10-12T20:04:46.108Z,12.00
2022-10-12T20:06:47.804Z,11.90
2022-10-12T20:08:51.129Z,11.90
2022-10-12T20:10:53.014Z,11.80
2022-10-12T20:12:54.670Z,11.80
2022-10-12T20:14:56.306Z,11.80
2022-10-12T20:16:58.048Z,11.70
2022-10-12T20:18:59.679Z,11.70
2022-10-12T20:21:04.453Z,11.70
2022-10-12T20:23:06.096Z,11.60
2022-10-12T20:25:09.766Z,11.60
2022-10-12T20:27:11.687Z,11.60
2022-10-12T20:29:13.340Z,11.50
2022-10-12T20:31:14.935Z,11.50
2022-10-12T20:33:16.588Z,11.50
2022-10-12T20:35:18.212Z,11.40
2022-10-12T20:37:21.537Z,11.40
2022-10-12T20:39:23.195Z,11.40
2022-10-12T20:41:25.738Z,11.40
2022-10-12T20:43:27.400Z,11.30
2022-10-12T20:45:29.028Z,11.30
2022-10-12T20:47:30.672Z,11.30
2022-10-12T20:49:32.520Z,11.20
2022-10-12T20:51:35.853Z,11.20
2022-10-12T20:53:38.285Z,11.10
2022-10-12T20:55:40.026Z,11.10
2022-10-12T20:57:41.677Z,11.10
2022-10-12T20:59:45.550Z,11.00
2022-10-12T21:01:47.587Z,11.00
2022-10-12T21:03:49.410Z,11.00
2022-10-12T21:05:51.040Z,11.00
2022-10-12T21:07:52.754Z,10.90
2022-10-12T21:09:54.377Z,10.90
2022-10-12T21:11:56.032Z,10.90
2022-10-12T21:13:57.734Z,10.90
2022-10-12T21:15:59.415Z,10.80
2022-10-12T21:18:01.027Z,10.80
2022-10-12T21:20:03.247Z,10.80
2022-10-12T21:22:04.929Z,10.70
2022-10-12T21:24:06.739Z,10.70
2022-10-12T21:26:15.784Z,10.70
2022-10-12T21:28:17.598Z,10.70
2022-10-12T21:30:19.218Z,10.60
2022-10-12T21:32:20.982Z,10.60
2022-10-12T21:34:23.688Z,10.60
2022-10-12T21:36:27.082Z,10.60
2022-10-12T21:38:30.022Z,10.50
2022-10-12T21:40:32.042Z,10.50
2022-10-12T21:42:33.673Z,10.50
2022-10-12T21:44:35.327Z,10.50
2022-10-12T21:46:37.295Z,10.40
2022-10-12T21:48:38.991Z,10.50
2022-10-12T21:50:40.623Z,10.40
2022-10-12T21:52:42.246Z,10.40
2022-10-12T21:54:43.895Z,10.30
2022-10-12T21:56:45.565Z,10.30
2022-10-12T21:58:47.730Z,10.30
2022-10-12T22:00:49.412Z,10.30
2022-10-12T22:02:51.074Z,10.20
2022-10-12T22:04:52.697Z,10.20
2022-10-12T22:06:58.325Z,10.20
2022-10-12T22:09:06.281Z,10.20
2022-10-12T22:11:09.441Z,10.20
2022-10-12T22:13:11.082Z,10.10
2022-10-12T22:15:12.691Z,10.10
2022-10-12T22:17:14.317Z,10.10
2022-10-12T22:19:18.930Z,10.10
2022-10-12T22:21:20.684Z,10.10
2022-10-12T22:23:22.436Z,10.00
2022-10-12T22:25:24.134Z,10.10
2022-10-12T22:27:25.758Z,10.00
2022-10-12T22:29:27.370Z,10.00
2022-10-12T22:31:29.068Z,10.00
2022-10-12T22:33:30.684Z,10.00
2022-10-12T22:35:32.311Z,10.00
2022-10-12T22:37:33.961Z,10.00
2022-10-12T22:39:35.563Z,9.90
2022-10-12T22:41:37.203Z,9.90
2022-10-12T22:43:39.071Z,9.90
2022-10-12T22:45:40.672Z,9.90
2022-10-12T22:47:42.379Z,9.90
2022-10-12T22:49:44.004Z,9.90
2022-10-12T22:51:45.751Z,9.90
2022-10-12T22:53:47.401Z,9.90
2022-10-12T22:55:49.275Z,9.90
2022-10-12T22:57:50.903Z,9.90
2022-10-12T22:59:52.519Z,9.90
2022-10-12T23:01:54.187Z,9.90
2022-10-12T23:03:55.933Z,9.90
2022-10-12T23:05:57.599Z,9.90
2022-10-12T23:07:59.239Z,9.80
2022-10-12T23:10:00.860Z,9.80
2022-10-12T23:12:02.455Z,9.80
2022-10-12T23:14:04.071Z,9.80
2022-10-12T23:16:10.263Z,9.80
2022-10-12T23:18:11.863Z,9.80
2022-10-12T23:20:13.531Z,9.80
2022-10-12T23:22:15.293Z,9.80
2022-10-12T23:24:17.057Z,9.70
2022-10-12T23:26:19.999Z,9.80
2022-10-12T23:28:21.634Z,9.70
2022-10-12T23:30:23.383Z,9.70
2022-10-12T23:32:24.998Z,9.70
2022-10-12T23:34:26.679Z,9.70
2022-10-12T23:36:28.675Z,9.70
2022-10-12T23:38:31.130Z,9.70
2022-10-12T23:40:35.635Z,9.70
2022-10-12T23:42:37.271Z,9.70
2022-10-12T23:44:38.848Z,9.70
2022-10-12T23:46:40.553Z,9.70
2022-10-12T23:48:42.240Z,9.70
2022-10-12T23:50:44.313Z,9.60
2022-10-12T23:52:45.977Z,9.60
2022-10-12T23:54:47.618Z,9.60
2022-10-12T23:56:49.285Z,9.60
2022-10-12T23:58:51.004Z,9.60
